KWAL/WAL METAR and TAF weather

Enter ICAO airport designator
Station Type Date Time Source
KWAL METAR 2024/02/26 15:54 UTC NOAA

KWAL 261554Z 19013KT CLR 11/05 A3009 RMK AO2 SLP186 T01060050 $


Station Type Date Time Source
KWAL Decoded METAR 2024/02/26 15:54 UTC NOAA

WALLOPS FLIGHT FAC AIRPORT , VA, United States (KWAL) 37-56N 075-28W 14M
Feb 26, 2024 - 10:54 AM EST / 2024.02.26 1554 UTC
Wind: from the S (190 degrees) at 15 MPH (13 KT):0
Sky conditions: clear
Temperature: 51.1 F (10.6 C)
Dew Point: 41.0 F (5.0 C)
Relative Humidity: 68%
Pressure (altimeter): 30.09 in. Hg (1018 hPa)
ob: KWAL 261554Z 19013KT CLR 11/05 A3009 RMK AO2 SLP186 T01060050
cycle: 16

Station Type Date Time Source
KWAL TAF UTC NOAA

Error!

Example: see airport list